createdAt,value
2019-03-20T00:01:48.171Z,60.88
2019-03-20T00:04:50.247Z,60.98
2019-03-20T00:07:52.295Z,60.92
2019-03-20T00:10:54.192Z,60.78
2019-03-20T00:13:56.298Z,60.77
2019-03-20T00:16:58.173Z,61.00
2019-03-20T00:20:00.350Z,60.96
2019-03-20T00:23:02.270Z,60.62
2019-03-20T00:26:05.587Z,60.48
2019-03-20T00:29:08.078Z,60.62
2019-03-20T00:32:11.069Z,60.55
2019-03-20T00:35:13.145Z,60.41
2019-03-20T00:38:15.015Z,60.26
2019-03-20T00:41:17.017Z,60.26
2019-03-20T00:44:18.964Z,60.32
2019-03-20T00:47:22.064Z,60.35
2019-03-20T00:50:24.061Z,60.33
2019-03-20T00:53:25.990Z,60.49
2019-03-20T00:56:27.977Z,60.67
2019-03-20T00:59:29.929Z,60.89
2019-03-20T01:02:31.868Z,60.80
2019-03-20T01:05:33.823Z,60.91
2019-03-20T01:08:35.700Z,61.04
2019-03-20T01:11:37.659Z,61.28
2019-03-20T01:14:39.852Z,61.32
2019-03-20T01:17:42.455Z,61.29
2019-03-20T01:20:44.335Z,61.08
2019-03-20T01:23:46.177Z,61.42
2019-03-20T01:26:48.091Z,61.69
2019-03-20T01:29:50.023Z,61.78
2019-03-20T01:32:51.997Z,61.67
2019-03-20T01:35:53.919Z,61.80
2019-03-20T01:38:55.901Z,61.88
2019-03-20T01:41:57.784Z,62.01
2019-03-20T01:44:59.764Z,62.09
2019-03-20T01:48:01.613Z,62.35
2019-03-20T01:51:17.898Z,62.27
2019-03-20T01:54:19.801Z,62.21
2019-03-20T01:57:21.693Z,62.25
2019-03-20T02:00:23.833Z,62.15
2019-03-20T02:03:25.858Z,62.43
2019-03-20T02:06:27.759Z,62.60
2019-03-20T02:09:29.710Z,62.60
2019-03-20T02:12:31.554Z,62.62
2019-03-20T02:15:38.698Z,62.88
2019-03-20T02:18:37.297Z,62.98
2019-03-20T02:21:39.217Z,62.93
2019-03-20T02:24:41.127Z,62.86
2019-03-20T02:27:43.151Z,63.11
2019-03-20T02:30:45.656Z,62.97
2019-03-20T02:33:47.524Z,62.87
2019-03-20T02:36:49.459Z,62.93
2019-03-20T02:39:51.334Z,62.69
2019-03-20T02:42:53.689Z,62.45
2019-03-20T02:45:55.588Z,62.29
2019-03-20T02:48:58.870Z,62.16
2019-03-20T02:52:03.813Z,62.20
2019-03-20T02:55:07.167Z,62.33
2019-03-20T02:58:09.310Z,62.70
2019-03-20T03:01:11.346Z,62.82
2019-03-20T03:04:13.315Z,62.91
2019-03-20T03:07:15.197Z,63.24
2019-03-20T03:10:18.414Z,63.18
2019-03-20T03:13:21.700Z,63.08
2019-03-20T03:16:23.658Z,63.29
2019-03-20T03:19:25.577Z,63.42
2019-03-20T03:22:27.566Z,63.71
2019-03-20T03:25:29.434Z,63.63
2019-03-20T03:28:31.326Z,63.46
2019-03-20T03:31:34.900Z,63.34
2019-03-20T03:34:36.824Z,63.28
2019-03-20T03:37:38.705Z,63.26
2019-03-20T03:40:42.390Z,63.32
2019-03-20T03:43:44.323Z,63.43
2019-03-20T03:46:46.161Z,63.44
2019-03-20T03:49:48.065Z,63.44
2019-03-20T03:52:50.003Z,63.68
2019-03-20T03:55:51.848Z,63.71
2019-03-20T03:58:53.781Z,63.67
2019-03-20T04:01:55.674Z,64.15
2019-03-20T04:04:57.714Z,64.31
2019-03-20T04:07:59.587Z,64.62
2019-03-20T04:11:01.461Z,64.71
2019-03-20T04:14:05.055Z,64.89
2019-03-20T04:17:22.190Z,65.16
2019-03-20T04:20:24.051Z,65.31
2019-03-20T04:23:25.962Z,65.23
2019-03-20T04:26:27.911Z,64.97
2019-03-20T04:29:29.862Z,64.79
2019-03-20T04:32:31.829Z,64.50
2019-03-20T04:35:33.706Z,64.41
2019-03-20T04:38:35.661Z,64.30
2019-03-20T04:41:37.547Z,64.34
2019-03-20T04:44:39.535Z,64.93
2019-03-20T04:47:41.467Z,64.68
2019-03-20T04:50:43.415Z,64.75
2019-03-20T04:53:45.299Z,65.04
2019-03-20T04:56:47.250Z,64.92
2019-03-20T04:59:49.162Z,65.02
2019-03-20T05:02:52.214Z,65.24
2019-03-20T05:05:54.175Z,65.33
2019-03-20T05:08:56.102Z,65.53
2019-03-20T05:11:58.035Z,65.41
2019-03-20T05:15:00.019Z,65.68
2019-03-20T05:18:01.985Z,64.57
2019-03-20T05:21:03.904Z,63.20
2019-03-20T05:24:05.813Z,61.37
2019-03-20T05:27:08.340Z,59.67
2019-03-20T05:30:12.201Z,58.37
2019-03-20T05:33:14.149Z,56.75
2019-03-20T05:36:16.105Z,56.10
2019-03-20T05:39:18.137Z,54.97
2019-03-20T05:42:20.025Z,53.78
2019-03-20T05:45:21.941Z,51.94
2019-03-20T05:48:23.812Z,50.94
2019-03-20T05:51:25.743Z,50.15
2019-03-20T05:54:28.785Z,48.78
2019-03-20T05:57:30.700Z,49.48
2019-03-20T06:00:34.430Z,47.88
2019-03-20T06:03:36.374Z,47.91
2019-03-20T06:06:38.378Z,46.57
2019-03-20T06:09:40.286Z,46.34
2019-03-20T06:12:42.264Z,46.72
2019-03-20T06:15:45.435Z,45.18
2019-03-20T06:18:47.503Z,44.81
2019-03-20T06:21:49.518Z,44.61
2019-03-20T06:24:51.420Z,43.48
2019-03-20T06:27:53.401Z,43.16
2019-03-20T06:30:55.309Z,41.82
2019-03-20T06:33:57.248Z,41.31
2019-03-20T06:36:59.074Z,40.11
2019-03-20T06:40:00.979Z,40.19
2019-03-20T06:43:02.927Z,39.32
2019-03-20T06:46:04.920Z,38.71
2019-03-20T06:49:07.926Z,38.44
2019-03-20T06:52:10.389Z,37.81
2019-03-20T06:55:13.383Z,37.22
2019-03-20T06:58:15.347Z,35.93
2019-03-20T07:01:20.870Z,35.65
2019-03-20T07:04:26.399Z,36.32
2019-03-20T07:07:43.210Z,35.25
2019-03-20T07:10:48.782Z,35.27
2019-03-20T07:13:50.809Z,34.99
2019-03-20T07:16:52.980Z,34.14
2019-03-20T07:19:55.148Z,34.58
2019-03-20T07:22:57.111Z,34.48
2019-03-20T07:25:59.067Z,33.96
2019-03-20T07:29:02.039Z,33.62
2019-03-20T07:32:03.894Z,33.48
2019-03-20T07:35:05.912Z,34.10
2019-03-20T07:38:09.049Z,33.62
2019-03-20T07:41:11.024Z,33.82
2019-03-20T07:44:12.990Z,33.25
2019-03-20T07:47:15.033Z,32.89
2019-03-20T07:50:17.085Z,31.99
2019-03-20T07:53:19.006Z,31.88
2019-03-20T07:56:20.908Z,31.99
2019-03-20T07:59:23.914Z,31.85
2019-03-20T08:02:27.017Z,31.81
2019-03-20T08:05:29.712Z,31.93
2019-03-20T08:08:31.826Z,32.10
2019-03-20T08:11:33.679Z,31.58
2019-03-20T08:14:35.610Z,32.61
2019-03-20T08:17:37.621Z,33.04
2019-03-20T08:20:39.723Z,32.66
2019-03-20T08:23:41.645Z,32.91
2019-03-20T08:26:45.156Z,33.37
2019-03-20T08:29:47.051Z,34.14
2019-03-20T08:32:49.481Z,34.53
2019-03-20T08:35:51.351Z,34.65
2019-03-20T08:38:53.264Z,34.77
2019-03-20T08:41:55.166Z,35.63
2019-03-20T08:44:57.146Z,36.07
2019-03-20T08:47:59.222Z,36.48
2019-03-20T08:51:01.139Z,36.12
2019-03-20T08:54:03.391Z,36.25
2019-03-20T08:57:05.353Z,36.07
2019-03-20T09:00:13.640Z,36.08
2019-03-20T09:03:15.618Z,36.60
2019-03-20T09:06:17.529Z,36.61
2019-03-20T09:09:19.463Z,36.70
2019-03-20T09:12:21.352Z,37.16
2019-03-20T09:15:23.259Z,37.23
2019-03-20T09:18:25.232Z,37.15
2019-03-20T09:21:27.262Z,37.66
2019-03-20T09:24:29.193Z,37.78
2019-03-20T09:27:33.424Z,37.85
2019-03-20T09:30:35.384Z,38.29
2019-03-20T09:33:37.326Z,37.71
2019-03-20T09:36:43.316Z,37.20
2019-03-20T09:39:43.169Z,35.23
2019-03-20T09:42:45.146Z,35.74
2019-03-20T09:45:47.105Z,35.83
2019-03-20T09:48:49.080Z,35.81
2019-03-20T09:51:51.028Z,36.64
2019-03-20T09:54:52.951Z,36.69
2019-03-20T09:57:55.012Z,37.21
2019-03-20T10:00:56.951Z,36.18
2019-03-20T10:03:58.917Z,35.59
2019-03-20T10:07:00.864Z,36.33
2019-03-20T10:10:06.307Z,35.32
2019-03-20T10:13:08.227Z,34.60
2019-03-20T10:16:10.183Z,34.04
2019-03-20T10:19:12.555Z,34.51
2019-03-20T10:22:14.642Z,35.29
2019-03-20T10:25:17.129Z,34.30
2019-03-20T10:28:19.093Z,34.28
2019-03-20T10:31:21.103Z,34.60
2019-03-20T10:34:23.011Z,35.09
2019-03-20T10:37:25.415Z,34.55
2019-03-20T10:40:27.814Z,34.34
2019-03-20T10:43:29.771Z,34.10
2019-03-20T10:46:31.695Z,33.49
2019-03-20T10:49:33.679Z,32.67
2019-03-20T10:52:35.648Z,32.90
2019-03-20T10:55:37.599Z,33.45
2019-03-20T10:58:39.689Z,32.44
2019-03-20T11:01:42.838Z,33.39
2019-03-20T11:04:45.289Z,34.08
2019-03-20T11:07:47.410Z,32.89
2019-03-20T11:10:49.318Z,32.06
2019-03-20T11:13:51.329Z,31.60
2019-03-20T11:16:53.236Z,31.34
2019-03-20T11:19:56.258Z,30.68
2019-03-20T11:22:58.471Z,31.29
2019-03-20T11:26:00.498Z,31.61
2019-03-20T11:29:02.446Z,31.29
2019-03-20T11:32:04.345Z,31.45
2019-03-20T11:35:06.262Z,30.49
2019-03-20T11:38:08.224Z,30.57
2019-03-20T11:41:10.202Z,30.38
2019-03-20T11:44:12.137Z,31.02
2019-03-20T11:47:14.087Z,31.27
2019-03-20T11:50:31.032Z,30.83
2019-03-20T11:53:32.964Z,30.65
2019-03-20T11:56:34.868Z,31.01
2019-03-20T11:59:36.843Z,29.80
2019-03-20T12:02:38.784Z,29.98
2019-03-20T12:05:40.741Z,30.55
2019-03-20T12:08:44.518Z,29.79
2019-03-20T12:11:46.470Z,29.29
2019-03-20T12:14:48.398Z,29.22
2019-03-20T12:17:51.590Z,30.31
2019-03-20T12:20:53.564Z,30.11
2019-03-20T12:23:55.583Z,29.46
2019-03-20T12:26:57.500Z,29.62
2019-03-20T12:29:59.459Z,29.87
2019-03-20T12:33:01.529Z,30.63
2019-03-20T12:36:03.491Z,29.71
2019-03-20T12:39:06.719Z,30.19
2019-03-20T12:42:08.654Z,30.80
2019-03-20T12:45:14.259Z,30.46
2019-03-20T12:48:17.518Z,30.52
2019-03-20T12:51:19.456Z,29.87
2019-03-20T12:54:21.345Z,30.16
2019-03-20T12:57:23.308Z,31.46
2019-03-20T13:00:27.570Z,30.58
2019-03-20T13:03:30.846Z,31.37
2019-03-20T13:06:33.072Z,32.10
2019-03-20T13:09:34.955Z,31.44
2019-03-20T13:12:36.915Z,31.46
2019-03-20T13:15:38.814Z,31.58
2019-03-20T13:18:40.783Z,31.25
2019-03-20T13:21:42.672Z,31.28
2019-03-20T13:24:44.776Z,31.15
2019-03-20T13:27:46.878Z,31.26
2019-03-20T13:31:04.759Z,31.13
2019-03-20T13:34:06.632Z,32.07
2019-03-20T13:37:08.730Z,31.78
2019-03-20T13:40:14.702Z,31.72
2019-03-20T13:43:15.452Z,32.15
2019-03-20T13:46:17.358Z,32.41
2019-03-20T13:49:19.269Z,32.00
2019-03-20T13:52:21.213Z,32.17
2019-03-20T13:55:23.237Z,32.52
2019-03-20T13:58:25.394Z,33.05
2019-03-20T14:01:27.253Z,32.44
2019-03-20T14:04:29.238Z,32.42
2019-03-20T14:07:31.245Z,32.59
2019-03-20T14:10:33.161Z,32.56
2019-03-20T14:13:35.180Z,32.62
2019-03-20T14:16:37.099Z,33.05
2019-03-20T14:19:39.030Z,32.90
2019-03-20T14:22:40.917Z,32.89
2019-03-20T14:25:42.971Z,32.81
2019-03-20T14:28:44.985Z,32.51
2019-03-20T14:31:47.575Z,33.10
2019-03-20T14:34:49.490Z,32.98
2019-03-20T14:37:51.439Z,32.27
2019-03-20T14:40:53.382Z,32.77
2019-03-20T14:43:55.364Z,32.72
2019-03-20T14:46:57.237Z,33.12
2019-03-20T14:49:59.446Z,33.75
2019-03-20T14:53:01.489Z,33.86
2019-03-20T14:56:03.528Z,34.40
2019-03-20T14:59:05.447Z,33.78
2019-03-20T15:02:07.374Z,33.97
2019-03-20T15:05:09.732Z,33.54
2019-03-20T15:08:11.700Z,33.83
2019-03-20T15:11:13.677Z,33.65
2019-03-20T15:14:15.640Z,33.63
2019-03-20T15:17:17.538Z,33.49
2019-03-20T15:20:19.506Z,33.43
2019-03-20T15:23:21.436Z,33.31
2019-03-20T15:26:23.568Z,33.33
2019-03-20T15:29:25.525Z,33.25
2019-03-20T15:32:28.107Z,34.13
2019-03-20T15:35:30.059Z,34.43
2019-03-20T15:38:32.030Z,33.90
2019-03-20T15:41:34.028Z,33.52
2019-03-20T15:44:36.031Z,33.78
2019-03-20T15:47:38.095Z,33.91
2019-03-20T15:50:40.086Z,34.57
2019-03-20T15:53:41.981Z,34.92
2019-03-20T15:56:43.951Z,35.03
2019-03-20T15:59:45.892Z,35.36
2019-03-20T16:02:50.025Z,35.60
2019-03-20T16:05:52.027Z,35.36
2019-03-20T16:08:56.693Z,35.53
2019-03-20T16:11:58.032Z,36.22
2019-03-20T16:15:00.306Z,36.50
2019-03-20T16:18:02.350Z,36.49
2019-03-20T16:21:04.418Z,36.43
2019-03-20T16:24:06.526Z,36.35
2019-03-20T16:27:08.593Z,36.31
2019-03-20T16:30:15.892Z,36.38
2019-03-20T16:33:18.368Z,36.78
2019-03-20T16:36:20.357Z,37.05
2019-03-20T16:39:22.377Z,37.24
2019-03-20T16:42:24.466Z,37.15
2019-03-20T16:45:31.577Z,37.60
2019-03-20T16:48:33.951Z,38.44
2019-03-20T16:51:36.423Z,39.17
2019-03-20T16:54:38.323Z,39.83
2019-03-20T16:57:40.301Z,40.79
2019-03-20T17:00:43.806Z,41.31
2019-03-20T17:03:45.679Z,41.37
2019-03-20T17:06:47.666Z,41.35
2019-03-20T17:09:49.639Z,41.13
2019-03-20T17:12:51.523Z,40.96
2019-03-20T17:15:53.863Z,40.85
2019-03-20T17:18:55.763Z,40.74
2019-03-20T17:21:58.378Z,40.90
2019-03-20T17:25:00.357Z,41.29
2019-03-20T17:28:02.677Z,41.35
2019-03-20T17:31:04.585Z,41.34
2019-03-20T17:34:06.545Z,41.27
2019-03-20T17:37:08.999Z,41.23
2019-03-20T17:40:14.689Z,41.88
2019-03-20T17:43:16.623Z,42.45
2019-03-20T17:46:18.575Z,42.63
2019-03-20T17:49:22.837Z,42.93
2019-03-20T17:52:27.172Z,43.16
2019-03-20T17:55:31.767Z,43.11
2019-03-20T17:58:35.575Z,43.11
2019-03-20T18:01:37.501Z,43.24
2019-03-20T18:04:39.519Z,43.37
2019-03-20T18:07:43.326Z,43.42
2019-03-20T18:10:45.312Z,43.60
2019-03-20T18:13:47.687Z,43.85
2019-03-20T18:16:51.331Z,44.03
2019-03-20T18:19:53.582Z,44.57
2019-03-20T18:22:55.477Z,45.23
2019-03-20T18:25:57.454Z,45.81
2019-03-20T18:28:59.455Z,46.10
2019-03-20T18:32:01.438Z,46.28
2019-03-20T18:35:06.077Z,46.80
2019-03-20T18:38:08.111Z,46.83
2019-03-20T18:41:11.953Z,46.96
2019-03-20T18:44:16.140Z,47.66
2019-03-20T18:47:18.080Z,47.68
2019-03-20T18:50:30.252Z,47.50
2019-03-20T18:53:33.672Z,47.51
2019-03-20T18:56:36.121Z,48.10
2019-03-20T18:59:40.691Z,48.33
2019-03-20T19:02:42.718Z,48.60
2019-03-20T19:05:50.498Z,48.49
2019-03-20T19:08:52.539Z,48.76
2019-03-20T19:11:54.570Z,49.14
2019-03-20T19:14:58.334Z,49.13
2019-03-20T19:18:02.098Z,49.59
2019-03-20T19:21:04.014Z,49.67
2019-03-20T19:24:06.009Z,49.82
2019-03-20T19:27:07.929Z,50.00
2019-03-20T19:30:17.198Z,50.63
2019-03-20T19:33:20.653Z,50.77
2019-03-20T19:36:24.696Z,50.65
2019-03-20T19:39:28.725Z,50.92
2019-03-20T19:42:32.182Z,50.99
2019-03-20T19:45:34.187Z,51.21
2019-03-20T19:48:36.129Z,51.06
2019-03-20T19:51:38.030Z,51.15
2019-03-20T19:54:39.950Z,51.42
2019-03-20T19:57:41.902Z,51.69
2019-03-20T20:00:47.399Z,51.79
2019-03-20T20:03:51.669Z,52.15
2019-03-20T20:06:55.439Z,52.56
2019-03-20T20:09:57.459Z,52.25
2019-03-20T20:13:01.470Z,52.51
2019-03-20T20:16:05.824Z,52.76
2019-03-20T20:19:07.718Z,53.12
2019-03-20T20:22:09.692Z,53.29
2019-03-20T20:25:14.168Z,53.60
2019-03-20T20:28:20.226Z,53.91
2019-03-20T20:31:22.245Z,53.72
2019-03-20T20:34:24.189Z,54.02
2019-03-20T20:37:29.170Z,54.10
2019-03-20T20:40:31.115Z,54.20
2019-03-20T20:43:33.042Z,54.59
2019-03-20T20:46:40.083Z,54.38
2019-03-20T20:49:42.127Z,54.92
2019-03-20T20:52:44.693Z,55.32
2019-03-20T20:55:46.762Z,55.50
2019-03-20T20:58:48.936Z,55.11
2019-03-20T21:01:50.838Z,55.47
2019-03-20T21:04:52.785Z,55.50
2019-03-20T21:07:55.392Z,55.28
2019-03-20T21:10:57.341Z,55.35
2019-03-20T21:13:59.282Z,55.08
2019-03-20T21:17:01.348Z,55.00
2019-03-20T21:20:04.528Z,55.48
2019-03-20T21:23:39.202Z,55.24
2019-03-20T21:27:05.921Z,55.98
2019-03-20T21:30:26.761Z,55.65
2019-03-20T21:33:35.262Z,55.93
2019-03-20T21:36:56.032Z,55.92
2019-03-20T21:39:58.005Z,56.03
2019-03-20T21:43:39.525Z,56.12
2019-03-20T21:47:02.040Z,56.26
2019-03-20T21:50:24.109Z,56.54
2019-03-20T21:53:47.714Z,56.90
2019-03-20T21:56:59.308Z,56.78
2019-03-20T22:00:07.905Z,56.86
2019-03-20T22:03:10.538Z,57.03
2019-03-20T22:06:50.933Z,57.00
2019-03-20T22:10:12.842Z,57.18
2019-03-20T22:13:24.218Z,57.18
2019-03-20T22:16:57.231Z,57.15
2019-03-20T22:20:08.589Z,57.55
2019-03-20T22:23:29.530Z,57.62
2019-03-20T22:26:54.996Z,57.57
2019-03-20T22:29:57.031Z,57.27
2019-03-20T22:33:33.973Z,57.04
2019-03-20T22:36:37.150Z,56.93
2019-03-20T22:40:14.637Z,57.06
2019-03-20T22:43:29.807Z,57.31
2019-03-20T22:47:02.602Z,57.20
2019-03-20T22:50:20.262Z,57.39
2019-03-20T22:53:45.228Z,57.57
2019-03-20T22:57:02.253Z,57.91
2019-03-20T23:00:09.897Z,57.86
2019-03-20T23:03:32.063Z,58.60
2019-03-20T23:06:33.973Z,58.47
2019-03-20T23:09:35.899Z,58.52
2019-03-20T23:12:39.616Z,58.43
2019-03-20T23:15:41.529Z,59.49
2019-03-20T23:18:43.453Z,59.16
2019-03-20T23:21:45.474Z,59.07
2019-03-20T23:24:47.380Z,59.10
2019-03-20T23:27:49.397Z,58.98
2019-03-20T23:30:51.335Z,59.03
2019-03-20T23:33:53.212Z,58.98
2019-03-20T23:36:55.200Z,59.04
2019-03-20T23:39:57.403Z,59.22
2019-03-20T23:43:08.827Z,59.08
2019-03-20T23:46:10.699Z,59.36
2019-03-20T23:49:16.140Z,59.08
2019-03-20T23:52:18.056Z,59.62
2019-03-20T23:55:20.074Z,59.76
2019-03-20T23:58:21.941Z,59.87
